createdAt,value
2023-11-12T00:03:34.448Z,5.67
2023-11-12T00:08:36.004Z,5.81
2023-11-12T00:13:37.574Z,5.77
2023-11-12T00:18:40.452Z,5.79
2023-11-12T00:23:41.994Z,5.74
2023-11-12T00:28:43.662Z,5.84
2023-11-12T00:33:45.943Z,5.83
2023-11-12T00:38:48.630Z,5.85
2023-11-12T00:43:50.450Z,5.79
2023-11-12T00:48:52.051Z,5.75
2023-11-12T00:53:53.565Z,5.73
2023-11-12T00:58:55.097Z,5.71
2023-11-12T01:03:57.300Z,5.69
2023-11-12T01:08:58.897Z,5.66
2023-11-12T01:19:06.957Z,5.46
2023-11-12T01:24:09.201Z,5.47
2023-11-12T01:29:11.450Z,5.55
2023-11-12T01:34:15.187Z,5.54
2023-11-12T01:39:16.788Z,5.55
2023-11-12T01:44:18.517Z,5.59
2023-11-12T01:49:21.634Z,5.62
2023-11-12T01:54:28.194Z,5.67
2023-11-12T01:59:31.983Z,5.70
2023-11-12T02:04:33.593Z,5.77
2023-11-12T02:09:35.189Z,5.82
2023-11-12T02:14:39.132Z,5.85
2023-11-12T02:19:40.655Z,5.90
2023-11-12T02:24:43.592Z,5.90
2023-11-12T02:29:49.805Z,5.89
2023-11-12T02:34:51.387Z,5.91
2023-11-12T02:39:53.041Z,5.93
2023-11-12T02:44:54.844Z,5.92
2023-11-12T02:50:15.483Z,5.93
2023-11-12T02:55:18.090Z,5.97
2023-11-12T03:00:19.946Z,5.93
2023-11-12T03:05:21.983Z,5.90
2023-11-12T03:10:24.096Z,5.93
2023-11-12T03:15:26.658Z,5.91
2023-11-12T03:20:28.318Z,5.90
2023-11-12T03:25:29.835Z,5.91
2023-11-12T03:30:31.849Z,5.95
2023-11-12T03:35:33.266Z,5.91
2023-11-12T03:40:34.765Z,5.87
2023-11-12T03:45:36.486Z,5.94
2023-11-12T03:50:38.551Z,5.89
2023-11-12T03:55:39.956Z,5.86
2023-11-12T04:00:42.333Z,5.82
2023-11-12T04:05:44.009Z,5.72
2023-11-12T04:10:47.005Z,5.69
2023-11-12T04:15:48.620Z,5.67
2023-11-12T04:20:50.258Z,5.67
2023-11-12T04:25:51.747Z,5.63
2023-11-12T04:30:53.431Z,5.69
2023-11-12T04:35:54.924Z,5.69
2023-11-12T04:40:56.656Z,5.73
2023-11-12T04:45:58.239Z,5.64
2023-11-12T04:51:00.425Z,5.69
2023-11-12T04:56:02.071Z,5.68
2023-11-12T05:01:07.694Z,5.68
2023-11-12T05:06:09.774Z,5.79
2023-11-12T05:11:11.339Z,5.75
2023-11-12T05:16:12.845Z,5.76
2023-11-12T05:21:14.400Z,5.78
2023-11-12T05:26:16.048Z,5.75
2023-11-12T05:31:17.672Z,5.69
2023-11-12T05:36:19.272Z,5.79
2023-11-12T05:41:21.167Z,5.85
2023-11-12T05:46:22.777Z,5.82
2023-11-12T05:51:24.315Z,5.75
2023-11-12T05:56:25.927Z,5.81
2023-11-12T06:01:27.897Z,5.84
2023-11-12T06:06:29.553Z,5.88
2023-11-12T06:11:31.093Z,5.81
2023-11-12T06:16:32.681Z,5.80
2023-11-12T06:21:34.285Z,5.83
2023-11-12T06:26:35.860Z,5.82
2023-11-12T06:31:37.346Z,5.83
2023-11-12T06:36:38.992Z,5.86
2023-11-12T06:41:43.635Z,5.92
2023-11-12T06:46:46.315Z,5.94
2023-11-12T06:51:47.933Z,5.93
2023-11-12T06:56:49.613Z,5.98
2023-11-12T07:01:51.168Z,5.98
2023-11-12T07:07:05.521Z,5.99
2023-11-12T07:12:11.166Z,6.04
2023-11-12T07:17:12.698Z,6.04
2023-11-12T07:22:14.262Z,6.04
2023-11-12T07:27:15.828Z,6.13
2023-11-12T07:32:17.347Z,6.17
2023-11-12T07:37:18.847Z,6.28
2023-11-12T07:42:20.557Z,6.34
2023-11-12T07:47:22.377Z,6.43
2023-11-12T07:52:23.871Z,6.50
2023-11-12T07:57:25.456Z,6.59
2023-11-12T08:02:27.505Z,6.54
2023-11-12T08:07:28.931Z,6.57
2023-11-12T08:12:30.480Z,6.63
2023-11-12T08:17:32.445Z,6.70
2023-11-12T08:22:33.863Z,6.74
2023-11-12T08:27:36.416Z,6.89
2023-11-12T08:32:38.231Z,6.99
2023-11-12T08:37:39.905Z,7.16
2023-11-12T08:42:41.538Z,7.05
2023-11-12T08:47:43.084Z,6.96
2023-11-12T08:52:44.706Z,6.93
2023-11-12T08:57:46.300Z,7.13
2023-11-12T09:02:47.941Z,7.27
2023-11-12T09:07:49.823Z,7.46
2023-11-12T09:12:51.282Z,7.62
2023-11-12T09:17:54.584Z,7.45
2023-11-12T09:22:56.109Z,7.66
2023-11-12T09:27:57.730Z,7.73
2023-11-12T09:32:59.306Z,7.57
2023-11-12T09:38:00.911Z,7.75
2023-11-12T09:43:03.995Z,7.74
2023-11-12T09:48:17.947Z,7.75
2023-11-12T09:53:20.365Z,7.84
2023-11-12T09:58:21.936Z,7.83
2023-11-12T10:03:23.563Z,8.04
2023-11-12T10:08:25.365Z,7.93
2023-11-12T10:13:37.420Z,8.30
2023-11-12T10:18:39.451Z,8.16
2023-11-12T10:23:40.959Z,8.30
2023-11-12T10:28:42.630Z,8.55
2023-11-12T10:33:59.926Z,8.59
2023-11-12T10:39:06.962Z,8.77
2023-11-12T10:44:12.367Z,8.77
2023-11-12T10:49:14.241Z,8.85
2023-11-12T10:54:16.816Z,8.93
2023-11-12T10:59:19.221Z,8.22
2023-11-12T11:04:22.217Z,8.44
2023-11-12T11:09:24.352Z,8.21
2023-11-12T11:14:30.885Z,8.23
2023-11-12T11:19:44.729Z,8.16
2023-11-12T11:24:46.515Z,8.24
2023-11-12T11:30:10.251Z,8.23
2023-11-12T11:35:19.183Z,8.22
2023-11-12T11:40:34.201Z,8.31
2023-11-12T11:46:08.849Z,8.22
2023-11-12T11:51:40.179Z,8.25
2023-11-12T11:56:41.897Z,8.23
2023-11-12T12:01:48.166Z,8.26
2023-11-12T12:06:51.093Z,8.36
2023-11-12T12:11:54.186Z,8.35
2023-11-12T12:17:07.209Z,8.64
2023-11-12T12:22:09.358Z,8.55
2023-11-12T12:27:11.001Z,8.54
2023-11-12T12:32:15.008Z,8.40
2023-11-12T12:37:25.488Z,8.40
2023-11-12T12:42:28.905Z,8.39
2023-11-12T12:47:39.313Z,8.38
2023-11-12T12:52:45.777Z,8.45
2023-11-12T12:57:52.152Z,8.57
2023-11-12T13:02:54.102Z,8.66
2023-11-12T13:07:56.237Z,8.52
2023-11-12T13:12:57.801Z,8.50
2023-11-12T13:17:59.396Z,8.54
2023-11-12T13:23:02.085Z,8.53
2023-11-12T13:28:06.610Z,8.46
2023-11-12T13:33:08.945Z,8.41
2023-11-12T13:38:11.214Z,8.41
2023-11-12T13:43:13.062Z,8.30
2023-11-12T13:48:14.672Z,8.39
2023-11-12T13:53:16.414Z,8.23
2023-11-12T13:58:19.328Z,8.39
2023-11-12T14:03:20.949Z,8.23
2023-11-12T14:08:22.563Z,8.19
2023-11-12T14:13:25.055Z,8.14
2023-11-12T14:18:26.663Z,8.25
2023-11-12T14:23:29.980Z,8.09
2023-11-12T14:28:32.531Z,8.02
2023-11-12T14:33:34.975Z,8.13
2023-11-12T14:38:36.628Z,8.01
2023-11-12T14:43:38.791Z,7.88
2023-11-12T14:48:40.442Z,7.85
2023-11-12T14:53:42.087Z,7.99
2023-11-12T14:58:43.715Z,7.93
2023-11-12T15:03:45.374Z,7.75
2023-11-12T15:08:46.930Z,7.87
2023-11-12T15:13:48.461Z,7.69
2023-11-12T15:18:50.188Z,8.11
2023-11-12T15:23:51.852Z,8.22
2023-11-12T15:28:55.610Z,8.23
2023-11-12T15:33:57.598Z,8.27
2023-11-12T15:38:59.184Z,8.25
2023-11-12T15:44:01.541Z,8.22
2023-11-12T15:49:03.175Z,8.23
2023-11-12T15:54:05.891Z,8.21
2023-11-12T15:59:07.853Z,8.17
2023-11-12T16:04:09.500Z,8.15
2023-11-12T16:09:12.933Z,8.09
2023-11-12T16:14:14.446Z,8.07
2023-11-12T16:19:16.191Z,8.01
2023-11-12T16:24:17.708Z,8.02
2023-11-12T16:29:19.393Z,7.37
2023-11-12T16:34:20.933Z,7.33
2023-11-12T16:39:22.450Z,7.16
2023-11-12T16:44:25.493Z,7.26
2023-11-12T16:49:27.464Z,7.45
2023-11-12T16:54:29.282Z,7.23
2023-11-12T16:59:30.993Z,7.58
2023-11-12T17:04:32.672Z,7.47
2023-11-12T17:09:34.243Z,7.30
2023-11-12T17:14:36.978Z,7.47
2023-11-12T17:19:38.624Z,7.45
2023-11-12T17:24:40.215Z,7.60
2023-11-12T17:29:41.805Z,7.30
2023-11-12T17:34:43.672Z,7.53
2023-11-12T17:39:45.466Z,7.43
2023-11-12T17:44:49.718Z,7.38
2023-11-12T17:49:56.692Z,7.44
2023-11-12T17:54:58.426Z,7.44
2023-11-12T18:00:00.255Z,7.03
2023-11-12T18:05:02.131Z,7.18
2023-11-12T18:10:04.811Z,7.12
2023-11-12T18:15:07.081Z,6.89
2023-11-12T18:20:08.973Z,7.21
2023-11-12T18:25:10.759Z,6.84
2023-11-12T18:30:12.552Z,7.13
2023-11-12T18:35:15.092Z,6.71
2023-11-12T18:40:18.545Z,6.96
2023-11-12T18:45:20.456Z,6.96
2023-11-12T18:50:22.394Z,7.04
2023-11-12T18:55:23.812Z,6.67
2023-11-12T19:00:25.553Z,6.55
2023-11-12T19:05:27.055Z,6.79
2023-11-12T19:10:31.001Z,6.92
2023-11-12T19:15:32.591Z,6.94
2023-11-12T19:20:40.822Z,6.91
2023-11-12T19:25:44.288Z,6.81
2023-11-12T19:30:47.495Z,6.57
2023-11-12T19:35:51.458Z,6.65
2023-11-12T19:40:53.185Z,6.63
2023-11-12T19:45:54.680Z,6.52
2023-11-12T19:50:56.182Z,6.53
2023-11-12T19:55:58.152Z,6.61
2023-11-12T20:01:00.566Z,6.58
2023-11-12T20:06:02.948Z,6.52
2023-11-12T20:11:05.329Z,6.53
2023-11-12T20:16:10.367Z,6.61
2023-11-12T20:21:11.975Z,6.52
2023-11-12T20:26:16.504Z,6.59
2023-11-12T20:31:18.629Z,6.58
2023-11-12T20:36:20.262Z,6.58
2023-11-12T20:41:21.844Z,6.56
2023-11-12T20:46:23.432Z,6.60
2023-11-12T20:51:25.466Z,6.70
2023-11-12T20:56:26.965Z,6.61
2023-11-12T21:01:32.846Z,6.62
2023-11-12T21:06:35.954Z,6.61
2023-11-12T21:11:46.875Z,6.61
2023-11-12T21:16:50.355Z,6.62
2023-11-12T21:21:52.021Z,6.61
2023-11-12T21:26:53.564Z,6.58
2023-11-12T21:31:55.433Z,6.61
2023-11-12T21:36:57.020Z,6.58
2023-11-12T21:41:58.519Z,6.59
2023-11-12T21:47:00.926Z,6.59
2023-11-12T21:52:03.323Z,6.57
2023-11-12T21:57:05.101Z,6.60
2023-11-12T22:02:07.662Z,6.62
2023-11-12T22:07:09.345Z,6.63
2023-11-12T22:12:12.193Z,6.64
2023-11-12T22:17:13.778Z,6.60
2023-11-12T22:22:15.350Z,6.60
2023-11-12T22:27:16.882Z,6.61
2023-11-12T22:32:18.388Z,6.63
2023-11-12T22:37:20.064Z,6.59
2023-11-12T22:42:21.623Z,6.54
2023-11-12T22:47:23.116Z,6.53
2023-11-12T22:52:24.624Z,6.51
2023-11-12T22:57:26.763Z,6.43
2023-11-12T23:02:28.536Z,6.34
2023-11-12T23:07:31.562Z,6.42
2023-11-12T23:12:34.420Z,6.44
2023-11-12T23:17:36.062Z,6.48
2023-11-12T23:22:37.740Z,6.49
2023-11-12T23:27:39.645Z,6.51
2023-11-12T23:32:43.397Z,6.43
2023-11-12T23:37:44.938Z,6.30
2023-11-12T23:42:46.907Z,6.23
2023-11-12T23:47:48.513Z,6.14
2023-11-12T23:52:50.054Z,6.18
2023-11-12T23:57:52.717Z,6.18
